Balaton, Minnesota
Current Conditions -  °F | °C
As of 8:52 PM on Monday 22 Dec 2014 (Local Time) from KTKC Reporting Station
Light Snow Light Snow  
Wind Chill: 26°   Ceiling: 300
Heat Index: 34°   Visibility: 1.7mi
Dew Point: 33°   Wind: 9mph
Humidity: 97%   Direction: 100°E
Pressure: 29.53"   Gusts: NA
Location:  44.23°N, 95.87°W
Report Text: KTKC 230252Z AUTO 10008KT 1 3/4SM -SN OVC003 01/01 A2953 RMK AO2 P0001 T00100006
Loading
Personal Weather Stations






























Interactive Weather Map New forecast layout! Learn more

10-Day Weather Forecast

Advertisements
Track Severe Weather on mobile